sensor_id;sensor_type;location;lat;lon;timestamp;pressure;altitude;pressure_sealevel;temperature;humidity
64053;BME280;50299;49.524;8.536;2022-10-04T00:01:10;101304.25;;;3.92;75.41
64053;BME280;50299;49.524;8.536;2022-10-04T00:04:09;101300.53;;;3.66;74.86
64053;BME280;50299;49.524;8.536;2022-10-04T00:06:51;101296.91;;;3.61;78.36
64053;BME280;50299;49.524;8.536;2022-10-04T00:09:26;101291.50;;;3.66;78.39
64053;BME280;50299;49.524;8.536;2022-10-04T00:11:56;101298.63;;;4.09;85.28
64053;BME280;50299;49.524;8.536;2022-10-04T00:14:27;101301.91;;;4.69;93.34
64053;BME280;50299;49.524;8.536;2022-10-04T00:16:56;101294.53;;;4.80;85.96
64053;BME280;50299;49.524;8.536;2022-10-04T00:19:36;101300.13;;;4.37;76.57
64053;BME280;50299;49.524;8.536;2022-10-04T00:25:20;101301.47;;;3.45;73.20
64053;BME280;50299;49.524;8.536;2022-10-04T00:33:47;101301.50;;;2.47;74.42
64053;BME280;50299;49.524;8.536;2022-10-04T00:47:25;101299.59;;;2.48;78.33
64053;BME280;50299;49.524;8.536;2022-10-04T00:50:21;101302.06;;;2.71;80.68
64053;BME280;50299;49.524;8.536;2022-10-04T00:52:56;101306.91;;;2.91;79.05
64053;BME280;50299;49.524;8.536;2022-10-04T00:55:37;101300.72;;;3.01;77.21
64053;BME280;50299;49.524;8.536;2022-10-04T00:58:17;101297.53;;;3.09;80.03
64053;BME280;50299;49.524;8.536;2022-10-04T01:00:47;101297.00;;;3.12;77.13
64053;BME280;50299;49.524;8.536;2022-10-04T01:03:18;101290.63;;;3.28;80.76
64053;BME280;50299;49.524;8.536;2022-10-04T01:05:51;101283.97;;;3.19;77.35
64053;BME280;50299;49.524;8.536;2022-10-04T01:08:26;101278.66;;;2.80;73.42
64053;BME280;50299;49.524;8.536;2022-10-04T01:11:00;101278.25;;;2.23;73.76
64053;BME280;50299;49.524;8.536;2022-10-04T01:13:30;101272.31;;;1.70;76.59
64053;BME280;50299;49.524;8.536;2022-10-04T01:16:03;101263.53;;;2.02;78.78
64053;BME280;50299;49.524;8.536;2022-10-04T01:18:35;101265.59;;;2.16;77.33
64053;BME280;50299;49.524;8.536;2022-10-04T01:21:22;101267.91;;;2.25;75.64
64053;BME280;50299;49.524;8.536;2022-10-04T01:26:42;101266.03;;;2.08;76.67
64053;BME280;50299;49.524;8.536;2022-10-04T01:31:47;101268.88;;;1.41;74.88
64053;BME280;50299;49.524;8.536;2022-10-04T01:34:18;101267.22;;;1.40;78.47
64053;BME280;50299;49.524;8.536;2022-10-04T01:36:45;101260.72;;;1.12;76.66
64053;BME280;50299;49.524;8.536;2022-10-04T01:39:15;101263.25;;;1.02;76.01
64053;BME280;50299;49.524;8.536;2022-10-04T01:41:46;101260.19;;;1.27;78.97
64053;BME280;50299;49.524;8.536;2022-10-04T01:45:06;101251.84;;;1.51;79.38
64053;BME280;50299;49.524;8.536;2022-10-04T01:50:02;101242.97;;;0.93;77.28
64053;BME280;50299;49.524;8.536;2022-10-04T01:52:36;101246.84;;;0.97;79.16
64053;BME280;50299;49.524;8.536;2022-10-04T01:55:13;101237.28;;;0.94;76.18
64053;BME280;50299;49.524;8.536;2022-10-04T01:57:45;101230.44;;;0.63;77.26
64053;BME280;50299;49.524;8.536;2022-10-04T02:00:40;101220.06;;;0.77;80.98
64053;BME280;50299;49.524;8.536;2022-10-04T02:03:28;101219.94;;;1.34;82.39
64053;BME280;50299;49.524;8.536;2022-10-04T02:06:00;101217.72;;;2.04;86.89
64053;BME280;50299;49.524;8.536;2022-10-04T02:08:38;101226.22;;;1.85;77.37
64053;BME280;50299;49.524;8.536;2022-10-04T02:11:06;101220.38;;;1.09;75.45
64053;BME280;50299;49.524;8.536;2022-10-04T02:13:35;101221.72;;;1.07;79.00
64053;BME280;50299;49.524;8.536;2022-10-04T02:16:08;101222.78;;;1.56;84.23
64053;BME280;50299;49.524;8.536;2022-10-04T02:18:40;101224.97;;;1.76;84.78
64053;BME280;50299;49.524;8.536;2022-10-04T02:21:17;101216.91;;;2.03;80.24
64053;BME280;50299;49.524;8.536;2022-10-04T02:23:45;101207.78;;;2.41;86.31
64053;BME280;50299;49.524;8.536;2022-10-04T02:26:19;101197.47;;;3.03;92.14
64053;BME280;50299;49.524;8.536;2022-10-04T02:28:47;101194.00;;;3.44;87.08
64053;BME280;50299;49.524;8.536;2022-10-04T02:31:19;101187.75;;;3.49;88.29
64053;BME280;50299;49.524;8.536;2022-10-04T02:34:06;101190.06;;;3.67;86.71
64053;BME280;50299;49.524;8.536;2022-10-04T02:36:40;101189.63;;;3.11;69.70
64053;BME280;50299;49.524;8.536;2022-10-04T02:39:12;101188.88;;;2.57;71.90
64053;BME280;50299;49.524;8.536;2022-10-04T02:41:56;101188.66;;;2.63;78.26
64053;BME280;50299;49.524;8.536;2022-10-04T02:44:40;101194.50;;;2.50;71.35
64053;BME280;50299;49.524;8.536;2022-10-04T02:47:17;101194.94;;;2.15;76.83
64053;BME280;50299;49.524;8.536;2022-10-04T02:49:50;101185.97;;;2.41;81.18
64053;BME280;50299;49.524;8.536;2022-10-04T02:52:21;101181.59;;;2.67;81.29
64053;BME280;50299;49.524;8.536;2022-10-04T02:55:04;101187.13;;;2.73;80.16
64053;BME280;50299;49.524;8.536;2022-10-04T02:57:33;101176.06;;;2.89;78.42
64053;BME280;50299;49.524;8.536;2022-10-04T03:02:29;101192.00;;;2.70;70.19
64053;BME280;50299;49.524;8.536;2022-10-04T03:05:04;101187.91;;;2.19;71.17
64053;BME280;50299;49.524;8.536;2022-10-04T03:07:34;101184.81;;;2.37;81.40
64053;BME280;50299;49.524;8.536;2022-10-04T03:10:06;101182.09;;;2.37;77.90
64053;BME280;50299;49.524;8.536;2022-10-04T03:12:34;101179.78;;;2.02;73.09
64053;BME280;50299;49.524;8.536;2022-10-04T03:15:00;101175.97;;;2.03;75.06
64053;BME280;50299;49.524;8.536;2022-10-04T03:17:27;101182.94;;;2.16;77.45
64053;BME280;50299;49.524;8.536;2022-10-04T03:19:56;101181.00;;;2.11;74.72
64053;BME280;50299;49.524;8.536;2022-10-04T03:22:23;101177.88;;;2.03;76.82
64053;BME280;50299;49.524;8.536;2022-10-04T03:24:51;101174.94;;;2.58;87.09
64053;BME280;50299;49.524;8.536;2022-10-04T03:27:21;101172.91;;;3.82;99.40
64053;BME280;50299;49.524;8.536;2022-10-04T03:29:50;101165.06;;;4.06;88.72
64053;BME280;50299;49.524;8.536;2022-10-04T03:32:22;101159.81;;;3.89;87.30
64053;BME280;50299;49.524;8.536;2022-10-04T03:34:55;101170.13;;;3.72;82.24
64053;BME280;50299;49.524;8.536;2022-10-04T03:37:23;101178.91;;;3.79;83.43
64053;BME280;50299;49.524;8.536;2022-10-04T03:39:53;101177.81;;;3.75;77.33
64053;BME280;50299;49.524;8.536;2022-10-04T03:42:28;101174.94;;;3.50;78.61
64053;BME280;50299;49.524;8.536;2022-10-04T03:45:16;101178.53;;;3.23;76.25
64053;BME280;50299;49.524;8.536;2022-10-04T03:47:45;101176.06;;;2.89;70.83
64053;BME280;50299;49.524;8.536;2022-10-04T03:50:31;101181.25;;;2.91;75.35
64053;BME280;50299;49.524;8.536;2022-10-04T03:53:02;101175.94;;;2.47;70.48
64053;BME280;50299;49.524;8.536;2022-10-04T03:55:36;101177.00;;;2.19;76.13
64053;BME280;50299;49.524;8.536;2022-10-04T03:58:04;101177.63;;;2.26;76.21
64053;BME280;50299;49.524;8.536;2022-10-04T04:00:34;101177.66;;;2.85;83.74
64053;BME280;50299;49.524;8.536;2022-10-04T04:03:15;101175.78;;;2.91;77.16
64053;BME280;50299;49.524;8.536;2022-10-04T04:05:49;101182.50;;;3.37;90.33
64053;BME280;50299;49.524;8.536;2022-10-04T04:08:32;101188.84;;;4.01;92.29
64053;BME280;50299;49.524;8.536;2022-10-04T04:11:02;101179.97;;;4.46;90.95
64053;BME280;50299;49.524;8.536;2022-10-04T04:16:23;101177.88;;;4.84;92.06
64053;BME280;50299;49.524;8.536;2022-10-04T04:19:01;101181.72;;;5.24;88.70
64053;BME280;50299;49.524;8.536;2022-10-04T04:21:29;101182.81;;;4.97;83.75
64053;BME280;50299;49.524;8.536;2022-10-04T04:24:14;101187.22;;;4.98;83.66
64053;BME280;50299;49.524;8.536;2022-10-04T04:27:00;101197.91;;;4.89;76.01
64053;BME280;50299;49.524;8.536;2022-10-04T04:29:44;101185.97;;;4.38;77.48
64053;BME280;50299;49.524;8.536;2022-10-04T04:32:22;101195.06;;;4.49;87.60
64053;BME280;50299;49.524;8.536;2022-10-04T04:37:24;101200.78;;;4.37;72.15
64053;BME280;50299;49.524;8.536;2022-10-04T04:39:52;101196.63;;;4.24;80.16
64053;BME280;50299;49.524;8.536;2022-10-04T04:42:22;101206.78;;;4.34;79.17
64053;BME280;50299;49.524;8.536;2022-10-04T04:44:52;101195.09;;;4.74;87.65
64053;BME280;50299;49.524;8.536;2022-10-04T04:47:30;101195.59;;;4.46;77.83
64053;BME280;50299;49.524;8.536;2022-10-04T04:50:13;101192.53;;;4.32;75.93
64053;BME280;50299;49.524;8.536;2022-10-04T04:52:51;101191.44;;;4.38;87.42
64053;BME280;50299;49.524;8.536;2022-10-04T04:55:37;101191.84;;;4.87;90.14
64053;BME280;50299;49.524;8.536;2022-10-04T04:58:32;101184.44;;;5.34;93.48
64053;BME280;50299;49.524;8.536;2022-10-04T05:01:15;101184.09;;;5.81;97.45
64053;BME280;50299;49.524;8.536;2022-10-04T05:06:43;101177.81;;;6.40;99.13
64053;BME280;50299;49.524;8.536;2022-10-04T05:09:25;101171.88;;;6.68;93.62
64053;BME280;50299;49.524;8.536;2022-10-04T05:11:58;101167.63;;;6.46;90.34
64053;BME280;50299;49.524;8.536;2022-10-04T05:14:27;101169.91;;;6.34;86.30
64053;BME280;50299;49.524;8.536;2022-10-04T05:16:56;101179.41;;;6.52;90.42
64053;BME280;50299;49.524;8.536;2022-10-04T05:19:26;101174.31;;;6.20;83.42
64053;BME280;50299;49.524;8.536;2022-10-04T05:21:58;101168.16;;;5.78;71.52
64053;BME280;50299;49.524;8.536;2022-10-04T05:24:30;101175.44;;;5.18;74.29
64053;BME280;50299;49.524;8.536;2022-10-04T05:27:26;101171.59;;;5.19;88.43
64053;BME280;50299;49.524;8.536;2022-10-04T05:30:05;101180.50;;;5.86;92.89
64053;BME280;50299;49.524;8.536;2022-10-04T05:33:02;101180.09;;;6.23;100.00
64053;BME280;50299;49.524;8.536;2022-10-04T05:35:41;101184.13;;;6.41;90.53
64053;BME280;50299;49.524;8.536;2022-10-04T05:38:28;101176.53;;;6.18;92.88
64053;BME280;50299;49.524;8.536;2022-10-04T05:41:08;101176.81;;;6.71;91.87
64053;BME280;50299;49.524;8.536;2022-10-04T05:43:50;101180.94;;;6.08;77.44
64053;BME280;50299;49.524;8.536;2022-10-04T05:46:22;101170.16;;;5.52;73.21
64053;BME280;50299;49.524;8.536;2022-10-04T05:49:13;101166.66;;;5.11;76.75
64053;BME280;50299;49.524;8.536;2022-10-04T05:52:02;101173.19;;;5.56;90.10
64053;BME280;50299;49.524;8.536;2022-10-04T05:54:32;101172.88;;;5.68;86.62
64053;BME280;50299;49.524;8.536;2022-10-04T06:00:14;101160.88;;;5.28;77.17
64053;BME280;50299;49.524;8.536;2022-10-04T06:02:55;101173.19;;;4.74;80.34
64053;BME280;50299;49.524;8.536;2022-10-04T06:05:45;101168.50;;;4.44;78.37
64053;BME280;50299;49.524;8.536;2022-10-04T06:16:56;101209.38;;;5.68;87.62
64053;BME280;50299;49.524;8.536;2022-10-04T06:22:02;101202.28;;;5.11;79.56
64053;BME280;50299;49.524;8.536;2022-10-04T06:24:35;101199.81;;;5.25;81.98
64053;BME280;50299;49.524;8.536;2022-10-04T06:27:11;101201.69;;;5.55;85.52
64053;BME280;50299;49.524;8.536;2022-10-04T06:29:47;101200.09;;;5.38;77.19
64053;BME280;50299;49.524;8.536;2022-10-04T06:35:24;101200.59;;;5.51;83.60
64053;BME280;50299;49.524;8.536;2022-10-04T06:38:15;101201.00;;;6.09;95.97
64053;BME280;50299;49.524;8.536;2022-10-04T06:41:02;101203.69;;;6.74;93.42
64053;BME280;50299;49.524;8.536;2022-10-04T06:46:16;101200.00;;;6.49;92.60
64053;BME280;50299;49.524;8.536;2022-10-04T06:52:12;101192.13;;;5.16;71.87
64053;BME280;50299;49.524;8.536;2022-10-04T06:57:49;101195.34;;;5.80;92.72
64053;BME280;50299;49.524;8.536;2022-10-04T07:00:28;101196.88;;;6.71;98.71
64053;BME280;50299;49.524;8.536;2022-10-04T07:03:11;101214.13;;;7.16;97.16
64053;BME280;50299;49.524;8.536;2022-10-04T07:05:45;101222.22;;;6.53;72.06
64053;BME280;50299;49.524;8.536;2022-10-04T07:08:17;101215.88;;;5.87;76.59
64053;BME280;50299;49.524;8.536;2022-10-04T07:11:15;101222.91;;;6.19;87.32
64053;BME280;50299;49.524;8.536;2022-10-04T07:13:52;101223.91;;;5.58;72.14
64053;BME280;50299;49.524;8.536;2022-10-04T07:16:36;101226.94;;;5.52;85.46
64053;BME280;50299;49.524;8.536;2022-10-04T07:22:15;101228.41;;;6.79;84.31
64053;BME280;50299;49.524;8.536;2022-10-04T07:27:51;101226.97;;;6.92;86.01
64053;BME280;50299;49.524;8.536;2022-10-04T07:30:55;101227.00;;;8.08;100.00
64053;BME280;50299;49.524;8.536;2022-10-04T07:33:26;101235.25;;;8.51;100.00
64053;BME280;50299;49.524;8.536;2022-10-04T07:36:07;101235.03;;;9.09;99.55
64053;BME280;50299;49.524;8.536;2022-10-04T07:38:47;101231.25;;;7.71;73.06
64053;BME280;50299;49.524;8.536;2022-10-04T07:41:35;101233.94;;;7.13;79.58
64053;BME280;50299;49.524;8.536;2022-10-04T07:44:37;101233.34;;;7.21;83.73
64053;BME280;50299;49.524;8.536;2022-10-04T07:47:17;101233.38;;;7.79;87.86
64053;BME280;50299;49.524;8.536;2022-10-04T07:49:52;101237.25;;;8.69;96.61
64053;BME280;50299;49.524;8.536;2022-10-04T07:52:36;101236.28;;;8.98;87.16
64053;BME280;50299;49.524;8.536;2022-10-04T08:00:37;101232.72;;;9.62;86.77
64053;BME280;50299;49.524;8.536;2022-10-04T08:06:34;101229.09;;;9.95;88.84
64053;BME280;50299;49.524;8.536;2022-10-04T08:09:22;101224.38;;;9.81;85.72
64053;BME280;50299;49.524;8.536;2022-10-04T08:18:04;101225.88;;;10.56;84.65
64053;BME280;50299;49.524;8.536;2022-10-04T08:23:35;101226.19;;;10.82;82.78
64053;BME280;50299;49.524;8.536;2022-10-04T08:41:12;101217.50;;;11.43;83.89
64053;BME280;50299;49.524;8.536;2022-10-04T08:44:31;101216.28;;;11.57;79.29
64053;BME280;50299;49.524;8.536;2022-10-04T08:55:19;101205.38;;;10.71;70.50
64053;BME280;50299;49.524;8.536;2022-10-04T08:58:14;101206.91;;;10.77;71.36
64053;BME280;50299;49.524;8.536;2022-10-04T09:09:30;101212.81;;;11.74;89.11
64053;BME280;50299;49.524;8.536;2022-10-04T09:15:01;101209.69;;;11.45;64.74
64053;BME280;50299;49.524;8.536;2022-10-04T09:20:27;101198.78;;;11.17;81.86
64053;BME280;50299;49.524;8.536;2022-10-04T09:23:18;101203.38;;;11.75;82.02
64053;BME280;50299;49.524;8.536;2022-10-04T09:41:20;101206.56;;;12.00;67.44
64053;BME280;50299;49.524;8.536;2022-10-04T09:44:19;101202.75;;;11.87;67.37
64053;BME280;50299;49.524;8.536;2022-10-04T09:47:03;101208.91;;;12.15;71.19
64053;BME280;50299;49.524;8.536;2022-10-04T09:50:22;101206.31;;;12.27;66.73
64053;BME280;50299;49.524;8.536;2022-10-04T10:04:59;101210.34;;;13.77;68.09
64053;BME280;50299;49.524;8.536;2022-10-04T10:08:02;101204.84;;;13.69;68.72
64053;BME280;50299;49.524;8.536;2022-10-04T10:10:49;101197.94;;;13.84;61.52
64053;BME280;50299;49.524;8.536;2022-10-04T10:16:33;101189.59;;;14.13;65.36
64053;BME280;50299;49.524;8.536;2022-10-04T10:21:47;101187.88;;;14.29;54.85
64053;BME280;50299;49.524;8.536;2022-10-04T10:30:07;101195.72;;;14.99;51.22
64053;BME280;50299;49.524;8.536;2022-10-04T10:33:01;101197.13;;;15.05;47.71
64053;BME280;50299;49.524;8.536;2022-10-04T10:36:02;101188.88;;;14.75;53.36
64053;BME280;50299;49.524;8.536;2022-10-04T10:38:52;101184.47;;;14.74;51.50
64053;BME280;50299;49.524;8.536;2022-10-04T10:49:41;101171.69;;;15.15;47.25
64053;BME280;50299;49.524;8.536;2022-10-04T10:55:27;101172.47;;;15.49;49.64
64053;BME280;50299;49.524;8.536;2022-10-04T10:58:25;101179.63;;;15.38;49.87
64053;BME280;50299;49.524;8.536;2022-10-04T11:12:45;101158.50;;;15.37;49.67
64053;BME280;50299;49.524;8.536;2022-10-04T11:21:50;101165.56;;;15.34;46.35
64053;BME280;50299;49.524;8.536;2022-10-04T11:27:54;101167.19;;;15.93;46.88
64053;BME280;50299;49.524;8.536;2022-10-04T11:36:22;101163.16;;;16.55;48.72
64053;BME280;50299;49.524;8.536;2022-10-04T11:39:20;101153.25;;;16.70;49.35
64053;BME280;50299;49.524;8.536;2022-10-04T11:45:16;101154.16;;;16.34;45.33
64053;BME280;50299;49.524;8.536;2022-10-04T11:47:59;101156.94;;;16.34;47.76
64053;BME280;50299;49.524;8.536;2022-10-04T11:50:39;101160.63;;;16.50;47.01
64053;BME280;50299;49.524;8.536;2022-10-04T11:56:40;101154.69;;;16.92;46.07
64053;BME280;50299;49.524;8.536;2022-10-04T11:59:19;101147.50;;;17.07;46.83
64053;BME280;50299;49.524;8.536;2022-10-04T12:08:21;101136.81;;;17.09;48.44
64053;BME280;50299;49.524;8.536;2022-10-04T12:11:14;101130.09;;;16.69;47.70
64053;BME280;50299;49.524;8.536;2022-10-04T12:16:44;101126.25;;;16.62;43.41
64053;BME280;50299;49.524;8.536;2022-10-04T12:22:10;101118.44;;;16.80;47.75
64053;BME280;50299;49.524;8.536;2022-10-04T12:31:22;101104.22;;;16.85;43.41
64053;BME280;50299;49.524;8.536;2022-10-04T12:34:17;101098.06;;;17.23;47.53
64053;BME280;50299;49.524;8.536;2022-10-04T12:37:01;101093.34;;;16.95;43.71
64053;BME280;50299;49.524;8.536;2022-10-04T12:42:38;101093.66;;;16.78;44.79
64053;BME280;50299;49.524;8.536;2022-10-04T12:45:33;101087.69;;;17.23;46.68
64053;BME280;50299;49.524;8.536;2022-10-04T12:48:55;101087.44;;;17.60;44.17
64053;BME280;50299;49.524;8.536;2022-10-04T12:53:57;101063.66;;;17.03;45.50
64053;BME280;50299;49.524;8.536;2022-10-04T12:56:37;101070.50;;;16.77;45.94
64053;BME280;50299;49.524;8.536;2022-10-04T13:01:52;101061.25;;;17.49;44.88
64053;BME280;50299;49.524;8.536;2022-10-04T13:04:28;101058.34;;;17.61;43.28
64053;BME280;50299;49.524;8.536;2022-10-04T13:07:22;101063.84;;;17.93;44.44
64053;BME280;50299;49.524;8.536;2022-10-04T13:10:02;101066.00;;;17.99;42.06
64053;BME280;50299;49.524;8.536;2022-10-04T13:16:02;101056.94;;;18.41;42.70
64053;BME280;50299;49.524;8.536;2022-10-04T13:19:31;101048.38;;;17.80;41.67
64053;BME280;50299;49.524;8.536;2022-10-04T13:22:05;101046.94;;;18.05;42.18
64053;BME280;50299;49.524;8.536;2022-10-04T13:27:28;101054.88;;;18.38;42.13
64053;BME280;50299;49.524;8.536;2022-10-04T13:30:03;101050.50;;;18.80;40.82
64053;BME280;50299;49.524;8.536;2022-10-04T13:33:00;101049.28;;;18.77;39.03
64053;BME280;50299;49.524;8.536;2022-10-04T13:38:33;101042.44;;;18.36;41.55
64053;BME280;50299;49.524;8.536;2022-10-04T13:41:14;101043.38;;;18.82;37.55
64053;BME280;50299;49.524;8.536;2022-10-04T13:49:59;101045.50;;;18.50;38.24
64053;BME280;50299;49.524;8.536;2022-10-04T13:55:47;101040.41;;;18.94;41.62
64053;BME280;50299;49.524;8.536;2022-10-04T13:59:04;101037.63;;;19.21;35.28
64053;BME280;50299;49.524;8.536;2022-10-04T14:10:41;101030.38;;;19.16;37.33
64053;BME280;50299;49.524;8.536;2022-10-04T14:19:40;101019.28;;;18.58;36.62
64053;BME280;50299;49.524;8.536;2022-10-04T14:22:41;101012.19;;;19.30;35.15
64053;BME280;50299;49.524;8.536;2022-10-04T14:28:22;101009.47;;;20.16;35.54
64053;BME280;50299;49.524;8.536;2022-10-04T14:39:40;101006.72;;;20.54;36.83
64053;BME280;50299;49.524;8.536;2022-10-04T14:45:53;101004.66;;;21.32;33.80
64053;BME280;50299;49.524;8.536;2022-10-04T15:00:17;101000.28;;;22.01;33.32
64053;BME280;50299;49.524;8.536;2022-10-04T15:06:04;101001.84;;;21.94;34.37
64053;BME280;50299;49.524;8.536;2022-10-04T15:08:59;100988.88;;;22.59;36.14
64053;BME280;50299;49.524;8.536;2022-10-04T15:12:00;100990.47;;;22.64;33.50
64053;BME280;50299;49.524;8.536;2022-10-04T15:17:42;100972.84;;;21.83;32.51
64053;BME280;50299;49.524;8.536;2022-10-04T15:20:31;100962.81;;;21.86;33.52
64053;BME280;50299;49.524;8.536;2022-10-04T15:23:13;100965.19;;;21.84;35.45
64053;BME280;50299;49.524;8.536;2022-10-04T15:25:42;100965.34;;;22.09;34.91
64053;BME280;50299;49.524;8.536;2022-10-04T15:31:18;100968.75;;;22.79;32.98
64053;BME280;50299;49.524;8.536;2022-10-04T15:34:03;100962.31;;;22.71;32.90
64053;BME280;50299;49.524;8.536;2022-10-04T15:42:26;100977.22;;;22.75;32.10
64053;BME280;50299;49.524;8.536;2022-10-04T15:45:22;100974.78;;;22.63;31.09
64053;BME280;50299;49.524;8.536;2022-10-04T15:59:30;100961.22;;;21.85;33.12
64053;BME280;50299;49.524;8.536;2022-10-04T16:05:01;100959.69;;;20.84;37.14
64053;BME280;50299;49.524;8.536;2022-10-04T16:07:53;100963.88;;;20.64;34.26
64053;BME280;50299;49.524;8.536;2022-10-04T16:21:41;100949.22;;;15.38;46.40
64053;BME280;50299;49.524;8.536;2022-10-04T16:29:52;100952.56;;;14.70;49.81
64053;BME280;50299;49.524;8.536;2022-10-04T16:32:58;100950.00;;;14.65;52.61
64053;BME280;50299;49.524;8.536;2022-10-04T16:38:14;100931.66;;;14.52;53.56
64053;BME280;50299;49.524;8.536;2022-10-04T16:43:27;100924.84;;;14.28;62.66
64053;BME280;50299;49.524;8.536;2022-10-04T16:48:58;100916.16;;;13.97;65.30
64053;BME280;50299;49.524;8.536;2022-10-04T16:54:45;100915.38;;;13.75;62.20
64053;BME280;50299;49.524;8.536;2022-10-04T16:57:29;100920.25;;;13.58;58.78
64053;BME280;50299;49.524;8.536;2022-10-04T17:00:35;100927.19;;;13.43;59.36
64053;BME280;50299;49.524;8.536;2022-10-04T17:03:18;100930.19;;;12.99;58.21
64053;BME280;50299;49.524;8.536;2022-10-04T17:06:09;100932.50;;;12.42;60.50
64053;BME280;50299;49.524;8.536;2022-10-04T17:08:47;100937.31;;;12.06;62.22
64053;BME280;50299;49.524;8.536;2022-10-04T17:11:34;100939.41;;;11.92;62.14
64053;BME280;50299;49.524;8.536;2022-10-04T17:14:34;100946.75;;;11.79;62.04
64053;BME280;50299;49.524;8.536;2022-10-04T17:17:31;100945.94;;;11.70;63.59
64053;BME280;50299;49.524;8.536;2022-10-04T17:20:28;100952.09;;;11.67;65.24
64053;BME280;50299;49.524;8.536;2022-10-04T17:31:41;100978.94;;;11.41;63.65
64053;BME280;50299;49.524;8.536;2022-10-04T17:43:30;100986.66;;;10.50;67.28
64053;BME280;50299;49.524;8.536;2022-10-04T17:46:23;100992.13;;;10.42;65.93
64053;BME280;50299;49.524;8.536;2022-10-04T17:48:58;100991.38;;;10.50;67.79
64053;BME280;50299;49.524;8.536;2022-10-04T17:51:54;100979.31;;;10.46;65.97
64053;BME280;50299;49.524;8.536;2022-10-04T17:54:46;100999.22;;;10.34;66.70
64053;BME280;50299;49.524;8.536;2022-10-04T17:57:59;100993.13;;;10.23;65.41
64053;BME280;50299;49.524;8.536;2022-10-04T18:00:46;100987.03;;;10.13;67.46
64053;BME280;50299;49.524;8.536;2022-10-04T18:03:32;100988.84;;;10.17;71.22
64053;BME280;50299;49.524;8.536;2022-10-04T18:06:33;100990.09;;;10.11;68.16
64053;BME280;50299;49.524;8.536;2022-10-04T18:09:21;100985.13;;;9.99;68.68
64053;BME280;50299;49.524;8.536;2022-10-04T18:11:55;100988.13;;;9.89;66.84
64053;BME280;50299;49.524;8.536;2022-10-04T18:14:44;100986.84;;;9.59;68.74
64053;BME280;50299;49.524;8.536;2022-10-04T18:17:29;100990.53;;;9.54;69.58
64053;BME280;50299;49.524;8.536;2022-10-04T18:20:14;100982.91;;;9.10;69.08
64053;BME280;50299;49.524;8.536;2022-10-04T18:22:48;100982.31;;;9.13;73.99
64053;BME280;50299;49.524;8.536;2022-10-04T18:25:20;100988.00;;;9.03;71.14
64053;BME280;50299;49.524;8.536;2022-10-04T18:33:23;100997.69;;;8.21;72.63
64053;BME280;50299;49.524;8.536;2022-10-04T18:36:05;100994.06;;;7.69;76.22
64053;BME280;50299;49.524;8.536;2022-10-04T18:38:34;100988.84;;;8.05;77.04
64053;BME280;50299;49.524;8.536;2022-10-04T18:41:23;100998.16;;;7.91;74.58
64053;BME280;50299;49.524;8.536;2022-10-04T18:44:19;100995.41;;;7.91;76.12
64053;BME280;50299;49.524;8.536;2022-10-04T18:46:47;100999.94;;;8.00;76.04
64053;BME280;50299;49.524;8.536;2022-10-04T18:49:26;101002.22;;;8.12;79.21
64053;BME280;50299;49.524;8.536;2022-10-04T18:52:14;100998.63;;;8.63;82.75
64053;BME280;50299;49.524;8.536;2022-10-04T18:55:17;100987.69;;;8.77;78.41
64053;BME280;50299;49.524;8.536;2022-10-04T18:57:43;100991.47;;;8.81;76.44
64053;BME280;50299;49.524;8.536;2022-10-04T19:00:39;100991.56;;;8.90;76.56
64053;BME280;50299;49.524;8.536;2022-10-04T19:03:53;100990.75;;;9.03;77.26
64053;BME280;50299;49.524;8.536;2022-10-04T19:06:29;100990.34;;;9.23;83.89
64053;BME280;50299;49.524;8.536;2022-10-04T19:09:27;100997.41;;;9.29;76.55
64053;BME280;50299;49.524;8.536;2022-10-04T19:12:16;100992.28;;;8.95;73.31
64053;BME280;50299;49.524;8.536;2022-10-04T19:14:48;101001.47;;;8.77;71.76
64053;BME280;50299;49.524;8.536;2022-10-04T19:17:26;101003.72;;;8.56;72.83
64053;BME280;50299;49.524;8.536;2022-10-04T19:27:49;101017.19;;;8.90;75.60
64053;BME280;50299;49.524;8.536;2022-10-04T19:30:23;101016.88;;;8.78;75.93
64053;BME280;50299;49.524;8.536;2022-10-04T19:35:52;101028.16;;;7.49;71.17
64053;BME280;50299;49.524;8.536;2022-10-04T19:38:29;101035.78;;;7.04;75.17
64053;BME280;50299;49.524;8.536;2022-10-04T19:41:36;101037.09;;;7.36;75.78
64053;BME280;50299;49.524;8.536;2022-10-04T19:47:00;101032.31;;;7.89;78.59
64053;BME280;50299;49.524;8.536;2022-10-04T19:49:51;101035.00;;;7.95;74.95
64053;BME280;50299;49.524;8.536;2022-10-04T19:52:32;101040.50;;;7.95;78.11
64053;BME280;50299;49.524;8.536;2022-10-04T19:57:37;101039.97;;;7.74;74.25
64053;BME280;50299;49.524;8.536;2022-10-04T20:00:11;101045.53;;;7.87;78.49
64053;BME280;50299;49.524;8.536;2022-10-04T20:02:40;101043.63;;;8.07;80.14
64053;BME280;50299;49.524;8.536;2022-10-04T20:05:16;101039.56;;;8.18;79.11
64053;BME280;50299;49.524;8.536;2022-10-04T20:07:54;101048.44;;;8.34;77.72
64053;BME280;50299;49.524;8.536;2022-10-04T20:10:36;101045.63;;;8.20;74.69
64053;BME280;50299;49.524;8.536;2022-10-04T20:31:00;101058.25;;;7.83;74.71
64053;BME280;50299;49.524;8.536;2022-10-04T20:38:56;101051.47;;;8.70;94.51
64053;BME280;50299;49.524;8.536;2022-10-04T20:44:40;101068.81;;;9.72;98.28
64053;BME280;50299;49.524;8.536;2022-10-04T20:47:30;101061.97;;;9.28;84.15
64053;BME280;50299;49.524;8.536;2022-10-04T20:49:59;101063.34;;;8.84;80.01
64053;BME280;50299;49.524;8.536;2022-10-04T20:52:28;101065.41;;;8.60;76.22
64053;BME280;50299;49.524;8.536;2022-10-04T20:54:56;101064.38;;;8.37;77.45
64053;BME280;50299;49.524;8.536;2022-10-04T20:57:28;101066.63;;;8.35;79.02
64053;BME280;50299;49.524;8.536;2022-10-04T20:59:56;101072.13;;;8.35;81.26
64053;BME280;50299;49.524;8.536;2022-10-04T21:02:23;101066.06;;;8.52;80.16
64053;BME280;50299;49.524;8.536;2022-10-04T21:04:53;101071.41;;;8.62;80.77
64053;BME280;50299;49.524;8.536;2022-10-04T21:07:24;101068.59;;;8.67;80.56